Time;durP1;ratioP1;P1;durP2;ratioP2;P2;SDS_P1;SDS_P2;PMS_P1;PMS_P2;Temp;Humidity;BMP_temperature;BMP_pressure;BME280_temperature;BME280_humidity;BME280_pressure;Samples;Min_cycle;Max_cycle;Signal;HPM_P1;HPM_P2
2024/01/11 00:05:38;;;;;;;;;;;;;;;;;;;;;
2024/01/11 00:08:53;;;;;;;;;;;;;;;;;;;;;
2024/01/11 00:11:41;;;;;;;300.70;175.50;;;;;;;-6.02;100.00;101687.02;108637;1281;22071;-76
2024/01/11 00:14:20;;;;;;;305.70;177.50;;;;;;;-5.99;100.00;101688.21;108583;1281;22057;-76
2024/01/11 00:17:11;;;;;;;296.40;172.00;;;;;;;-5.98;100.00;101683.34;108632;1281;22083;-75
2024/01/11 00:20:03;;;;;;;303.50;177.00;;;;;;;-5.99;100.00;101677.88;108884;1277;21986;-78
2024/01/11 00:23:37;;;;;;;295.50;171.70;;;;;;;-5.99;100.00;101666.16;108912;1278;22012;-78
2024/01/11 00:27:14;;;;;;;290.70;165.00;;;;;;;-5.97;100.00;101653.04;108239;1290;22017;-79
2024/01/11 00:30:31;;;;;;;282.20;165.30;;;;;;;-5.93;100.00;101646.78;108289;1285;22051;-77
2024/01/11 00:33:26;;;;;;;;;;;;;;;-5.92;100.00;101644.13;108359;1285;23127;-77
2024/01/11 00:36:26;;;;;;;265.20;151.20;;;;;;;-5.98;100.00;101635.35;108258;1287;22001;-75
2024/01/11 00:42:34;;;;;;;268.00;154.00;;;;;;;-6.03;100.00;101621.73;108400;1286;21995;-75
2024/01/11 00:46:00;;;;;;;265.30;156.00;;;;;;;-6.01;100.00;101621.83;108640;1276;22162;-75
2024/01/11 00:48:48;;;;;;;261.60;152.70;;;;;;;-5.98;100.00;101623.84;108592;1281;23135;-74
2024/01/11 00:52:23;;;;;;;272.40;153.80;;;;;;;-5.97;100.00;101633.91;108402;1285;22040;-75
2024/01/11 00:55:07;;;;;;;273.00;155.50;;;;;;;-5.95;100.00;101642.98;108428;1285;22007;-76
2024/01/11 00:57:57;;;;;;;259.80;152.60;;;;;;;-5.94;100.00;101640.30;108465;1283;21996;-76
2024/01/11 01:01:23;;;;;;;255.00;150.50;;;;;;;-5.93;100.00;101633.58;108558;1281;22129;-75
2024/01/11 01:04:07;;;;;;;257.10;151.00;;;;;;;-5.90;100.00;101637.45;108963;1275;21999;-76
2024/01/11 01:08:59;;;;;;;;;;;;;;;;;;;;;
2024/01/11 01:15:46;;;;;;;;;;;;;;;;;;;;;
2024/01/11 01:19:14;;;;;;;244.20;144.20;;;;;;;-5.96;100.00;101617.17;109249;1272;22262;-75
2024/01/11 01:22:18;;;;;;;237.10;143.30;;;;;;;-5.97;100.00;101605.94;109111;1274;22064;-76
2024/01/11 01:25:33;;;;;;;241.60;142.60;;;;;;;-5.95;100.00;101597.52;109109;1275;21989;-75
2024/01/11 01:28:20;;;;;;;238.30;143.10;;;;;;;-5.94;100.00;101593.02;109068;1275;22697;-76
2024/01/11 01:31:40;;;;;;;;;;;;;;;;;;;;;
2024/01/11 01:35:07;;;;;;;223.10;136.40;;;;;;;-5.94;100.00;101590.63;108505;1283;22027;-77
2024/01/11 01:37:56;;;;;;;234.90;137.30;;;;;;;-5.91;100.00;101588.08;108394;1285;22089;-75
2024/01/11 01:41:14;;;;;;;;;;;;;;;;;;;;;
2024/01/11 01:44:43;;;;;;;;;;;;;;;;;;;;;
2024/01/11 01:48:05;;;;;;;212.10;130.90;;;;;;;-5.87;100.00;101569.76;108393;1287;22471;-77
2024/01/11 01:55:27;;;;;;;228.40;130.00;;;;;;;-5.87;100.00;101572.96;108593;1283;22762;-76
2024/01/11 02:02:22;;;;;;;222.70;129.50;;;;;;;-5.85;100.00;101563.73;108126;1285;23038;-77
2024/01/11 02:05:22;;;;;;;224.00;133.00;;;;;;;-5.86;100.00;101558.77;108011;1292;22004;-77
2024/01/11 02:08:35;;;;;;;224.10;133.40;;;;;;;-5.86;100.00;101561.17;107784;1283;23063;-76
2024/01/11 02:11:33;;;;;;;;;;;;;;;;;;;;;
2024/01/11 02:14:46;;;;;;;;;;;;;;;;;;;;;
2024/01/11 02:18:15;;;;;;;217.30;126.60;;;;;;;-5.84;100.00;101562.09;108078;1289;22470;-77
2024/01/11 02:21:03;;;;;;;211.70;126.60;;;;;;;-5.84;100.00;101571.28;108187;1287;22014;-77
2024/01/11 02:24:12;;;;;;;223.60;133.70;;;;;;;-5.81;100.00;101586.64;108287;1284;22035;-76
2024/01/11 02:27:30;;;;;;;202.20;124.70;;;;;;;-5.82;100.00;101587.27;108220;1287;22017;-77
2024/01/11 02:30:08;;;;;;;210.10;122.10;;;;;;;-5.83;100.00;101589.12;108211;1286;22315;-77
2024/01/11 02:32:57;;;;;;;212.80;128.10;;;;;;;-5.80;100.00;101576.55;108373;1286;23521;-76
2024/01/11 02:35:42;;;;;;;204.60;123.20;;;;;;;-5.78;100.00;101570.55;108267;1286;22083;-75
2024/01/11 02:38:23;;;;;;;199.90;126.30;;;;;;;-5.75;100.00;101579.67;108311;1281;22000;-76
2024/01/11 02:41:00;;;;;;;195.20;123.30;;;;;;;-5.72;100.00;101593.38;108642;1281;21880;-76
2024/01/11 02:43:53;;;;;;;209.40;126.30;;;;;;;-5.74;100.00;101586.66;108722;1280;23074;-77
2024/01/11 02:46:55;;;;;;;204.70;125.20;;;;;;;-5.68;100.00;101588.30;108685;1281;21993;-77
2024/01/11 02:49:55;;;;;;;215.30;126.80;;;;;;;-5.70;100.00;101569.23;108709;1280;23801;-77
2024/01/11 02:52:55;;;;;;;204.10;121.20;;;;;;;-5.73;100.00;101558.56;108829;1278;23721;-77
2024/01/11 02:59:24;;;;;;;189.40;119.10;;;;;;;-5.73;100.00;101559.05;108794;1280;23791;-76
2024/01/11 03:02:17;;;;;;;202.60;120.50;;;;;;;-5.70;100.00;101560.92;108596;1282;22078;-76
2024/01/11 03:05:42;;;;;;;185.60;113.30;;;;;;;-5.67;100.00;101572.76;108574;1281;22045;-76
2024/01/11 03:09:33;;;;;;;191.70;115.80;;;;;;;-5.66;100.00;101575.85;108641;1281;21996;-75
2024/01/11 03:13:20;;;;;;;;;;;;;;;;;;;;;
2024/01/11 03:16:48;;;;;;;181.70;108.70;;;;;;;-5.67;100.00;101566.30;108733;1281;22174;-76
2024/01/11 03:20:06;;;;;;;;;;;;;;;;;;;;;
2024/01/11 03:23:36;;;;;;;179.60;111.30;;;;;;;-5.66;100.00;101530.74;108478;1282;23653;-76
2024/01/11 03:27:16;;;;;;;179.40;109.60;;;;;;;-5.70;100.00;101523.27;108145;1289;23750;-77
2024/01/11 03:30:45;;;;;;;177.60;108.30;;;;;;;-5.69;100.00;101518.55;108370;1282;22362;-75
2024/01/11 03:34:13;;;;;;;175.20;107.20;;;;;;;-5.84;100.00;101474.95;108617;1282;22987;-75
2024/01/11 03:38:01;;;;;;;;;;;;;;;;;;;;;
2024/01/11 03:41:15;;;;;;;165.60;106.80;;;;;;;-5.61;100.00;101504.83;107635;1293;23056;-76
2024/01/11 03:44:27;;;;;;;164.20;103.00;;;;;;;-5.56;100.00;101511.52;107636;1293;22034;-76
2024/01/11 03:47:12;;;;;;;166.70;105.30;;;;;;;-5.52;100.00;101519.54;107512;1293;22073;-76
2024/01/11 03:50:04;;;;;;;170.50;106.00;;;;;;;-5.47;100.00;101526.19;107707;1291;22062;-77
2024/01/11 03:53:09;;;;;;;159.90;101.10;;;;;;;-5.44;100.00;101535.29;107839;1292;22232;-78
2024/01/11 03:55:58;;;;;;;164.00;103.40;;;;;;;-5.44;100.00;101532.92;108421;1282;21996;-76
2024/01/11 03:59:10;;;;;;;159.80;100.30;;;;;;;-5.46;100.00;101507.59;108492;1278;21996;-76
2024/01/11 04:02:15;;;;;;;164.40;98.20;;;;;;;-5.46;100.00;101502.33;108217;1287;24461;-77
2024/01/11 04:05:33;;;;;;;167.50;100.80;;;;;;;-5.41;100.00;101504.40;108396;1285;22019;-77
2024/01/11 04:08:59;;;;;;;;;;;;;;;;;;;;;
2024/01/11 04:11:51;;;;;;;143.40;92.50;;;;;;;-5.30;100.00;101465.02;108434;1285;23075;-76
2024/01/11 04:14:56;;;;;;;157.60;97.10;;;;;;;-5.27;100.00;101455.50;108236;1287;23727;-76
2024/01/11 04:18:11;;;;;;;;;;;;;;;;;;;;;
2024/01/11 04:21:28;;;;;;;169.40;102.60;;;;;;;-5.21;100.00;101441.98;108636;1280;23052;-77
2024/01/11 04:24:23;;;;;;;181.10;112.00;;;;;;;-5.20;100.00;101450.36;108894;1277;23124;-76
2024/01/11 04:27:56;;;;;;;143.30;86.00;;;;;;;-5.20;100.00;101450.87;108539;1283;21996;-77
2024/01/11 04:30:43;;;;;;;135.10;90.20;;;;;;;-5.20;100.00;101446.63;108588;1283;22219;-76
2024/01/11 04:33:31;;;;;;;134.80;86.70;;;;;;;-5.19;100.00;101443.80;109166;1271;22758;-77
2024/01/11 04:36:14;;;;;;;137.30;85.60;;;;;;;-5.20;100.00;101449.88;109710;1270;22987;-77
2024/01/11 04:39:33;;;;;;;137.10;88.70;;;;;;;-5.22;100.00;101456.23;109662;1270;22739;-76
2024/01/11 04:42:42;;;;;;;144.60;87.60;;;;;;;-5.24;100.00;101457.16;109692;1270;21985;-75
2024/01/11 04:45:37;;;;;;;131.50;84.30;;;;;;;-5.23;100.00;101441.91;109996;1264;21991;-76
2024/01/11 04:48:37;;;;;;;130.40;82.80;;;;;;;-5.21;100.00;101439.77;110620;1263;21973;-76
2024/01/11 04:51:29;;;;;;;124.10;77.40;;;;;;;-5.19;100.00;101440.23;109489;1270;21982;-76
2024/01/11 04:54:26;;;;;;;108.60;72.10;;;;;;;-5.17;100.00;101442.53;109072;1274;23764;-76
2024/01/11 04:57:55;;;;;;;99.60;63.90;;;;;;;-5.17;100.00;101427.41;109057;1274;21996;-77
2024/01/11 05:01:36;;;;;;;;;;;;;;;;;;;;;
2024/01/11 05:05:21;;;;;;;107.70;64.10;;;;;;;-5.17;100.00;101406.21;108221;1287;22751;-77
2024/01/11 05:08:03;;;;;;;102.20;65.20;;;;;;;-5.07;100.00;101417.16;108150;1287;23104;-76
2024/01/11 05:10:52;;;;;;;101.40;65.10;;;;;;;-5.02;100.00;101414.80;108470;1282;22033;-75
2024/01/11 05:14:22;;;;;;;100.30;65.00;;;;;;;-5.01;100.00;101407.19;108495;1283;21995;-76
2024/01/11 05:17:49;;;;;;;;;;;;;;;;;;;;;
2024/01/11 05:20:38;;;;;;;101.00;67.90;;;;;;;-5.00;100.00;101399.12;108738;1276;21973;-76
2024/01/11 05:23:35;;;;;;;103.20;66.10;;;;;;;-4.97;100.00;101382.78;109211;1270;22009;-76
2024/01/11 05:26:23;;;;;;;107.30;69.70;;;;;;;-4.93;100.00;101366.46;109500;1270;21983;-78
2024/01/11 05:29:25;;;;;;;115.40;71.70;;;;;;;-4.91;100.00;101367.73;109435;1270;21980;-77
2024/01/11 05:32:27;;;;;;;105.50;71.40;;;;;;;-4.88;100.00;101362.75;108984;1277;21986;-76
2024/01/11 05:36:03;;;;;;;108.50;73.00;;;;;;;-4.84;100.00;101356.63;108511;1282;22021;-76
2024/01/11 05:39:22;;;;;;;116.50;73.90;;;;;;;-4.86;100.00;101358.79;108705;1277;22003;-77
2024/01/11 05:46:13;;;;;;;116.70;72.80;;;;;;;-4.86;100.00;101360.48;108410;1283;22263;-76
2024/01/11 05:53:50;;;;;;;106.10;70.30;;;;;;;-4.83;100.00;101379.13;108783;1279;22048;-77
2024/01/11 05:57:28;;;;;;;107.40;68.50;;;;;;;-4.80;100.00;101377.89;108428;1284;21996;-76
2024/01/11 06:00:48;;;;;;;105.60;68.10;;;;;;;-4.77;100.00;101388.53;107726;1293;22745;-76
2024/01/11 06:10:36;;;;;;;95.70;65.20;;;;;;;-4.76;100.00;101348.82;107336;1297;22026;-77
2024/01/11 06:14:00;;;;;;;96.80;61.60;;;;;;;-4.74;100.00;101345.84;107527;1290;22559;-77
2024/01/11 06:17:50;;;;;;;87.10;55.50;;;;;;;-4.75;100.00;101350.36;108029;1282;23631;-77
2024/01/11 06:21:16;;;;;;;;;;;;;;;;;;;;;
2024/01/11 06:24:37;;;;;;;91.40;57.80;;;;;;;-4.78;100.00;101340.09;108700;1280;21927;-75
2024/01/11 06:27:29;;;;;;;96.90;62.60;;;;;;;-4.77;100.00;101342.67;108705;1280;23765;-76
2024/01/11 06:30:45;;;;;;;102.40;66.90;;;;;;;-4.76;100.00;101339.15;108688;1281;22006;-75
2024/01/11 06:35:24;;;;;;;89.90;61.70;;;;;;;-4.80;100.00;101345.08;107880;1292;23654;-75
2024/01/11 06:42:05;;;;;;;88.50;57.70;;;;;;;-4.93;100.00;101351.86;107491;1294;23838;-76
2024/01/11 06:45:23;;;;;;;98.20;65.30;;;;;;;-4.93;100.00;101347.45;107694;1281;22377;-76
2024/01/11 06:48:44;;;;;;;98.90;62.40;;;;;;;-4.95;100.00;101346.36;107735;1294;22781;-75
2024/01/11 06:52:08;;;;;;;90.70;59.10;;;;;;;-5.01;100.00;101343.05;107658;1294;22049;-76
2024/01/11 06:55:12;;;;;;;96.50;59.30;;;;;;;-5.05;100.00;101337.46;107502;1294;23765;-75
2024/01/11 06:58:01;;;;;;;;;;;;;;;;;;;;;
2024/01/11 07:00:53;;;;;;;109.50;68.20;;;;;;;-5.02;100.00;101331.81;108260;1284;24419;-76
2024/01/11 07:03:30;;;;;;;103.90;69.30;;;;;;;-5.01;100.00;101328.96;108185;1284;22075;-75
2024/01/11 07:10:36;;;;;;;94.10;62.30;;;;;;;-5.07;100.00;101333.30;109185;1268;22552;-77
2024/01/11 07:14:26;;;;;;;107.00;64.90;;;;;;;-5.10;100.00;101353.02;109728;1268;22903;-76
2024/01/11 07:17:54;;;;;;;101.00;64.30;;;;;;;-5.13;100.00;101353.92;108930;1264;21992;-77
2024/01/11 07:21:09;;;;;;;94.20;62.80;;;;;;;-5.13;100.00;101365.29;108886;1277;22092;-77
2024/01/11 07:24:26;;;;;;;104.10;65.80;;;;;;;-5.13;100.00;101371.75;108754;1280;22056;-76
2024/01/11 07:27:27;;;;;;;108.20;65.80;;;;;;;-5.13;100.00;101368.34;108450;1284;22670;-76
2024/01/11 07:30:27;;;;;;;95.80;63.80;;;;;;;-5.14;100.00;101357.27;108426;1282;23057;-77
2024/01/11 07:33:29;;;;;;;98.90;65.50;;;;;;;-5.13;100.00;101353.40;108477;1282;21997;-76
2024/01/11 07:37:11;;;;;;;97.20;65.60;;;;;;;-5.12;100.00;101357.03;108737;1278;22005;-77
2024/01/11 07:40:18;;;;;;;98.00;63.00;;;;;;;-5.08;100.00;101337.49;108962;1274;21996;-76
2024/01/11 07:43:31;;;;;;;92.00;61.10;;;;;;;-5.02;100.00;101344.86;109080;1273;22028;-76
2024/01/11 07:47:14;;;;;;;89.20;60.30;;;;;;;-4.99;100.00;101346.52;109968;1268;23704;-78
2024/01/11 07:50:50;;;;;;;84.40;56.50;;;;;;;-4.97;100.00;101351.35;109601;1271;21979;-77
2024/01/11 07:54:39;;;;;;;89.20;56.80;;;;;;;-4.97;100.00;101362.91;109939;1263;21973;-77
2024/01/11 07:57:59;;;;;;;94.80;63.10;;;;;;;-4.98;100.00;101358.95;110376;1263;22242;-76
2024/01/11 08:01:48;;;;;;;92.00;59.10;;;;;;;-4.96;100.00;101358.86;110450;1263;22236;-76
2024/01/11 08:05:43;;;;;;;95.20;61.40;;;;;;;-4.93;100.00;101356.46;110436;1263;21979;-77
2024/01/11 08:09:34;;;;;;;;;;;;;;;;;;;;;
2024/01/11 08:13:09;;;;;;;91.50;58.20;;;;;;;-4.91;100.00;101361.45;108823;1279;21987;-77
2024/01/11 08:15:54;;;;;;;84.80;55.30;;;;;;;-4.90;100.00;101372.20;108526;1282;22827;-76
2024/01/11 08:18:52;;;;;;;;;;;;;;;;;;;;;
2024/01/11 08:22:04;;;;;;;87.80;55.90;;;;;;;-4.88;100.00;101372.60;108238;1286;23059;-77
2024/01/11 08:25:14;;;;;;;89.90;61.00;;;;;;;-4.87;100.00;101379.59;108099;1286;22009;-76
2024/01/11 08:28:12;;;;;;;99.80;65.00;;;;;;;-4.84;100.00;101376.52;108262;1285;22755;-75
2024/01/11 08:30:58;;;;;;;89.80;58.30;;;;;;;-4.82;100.00;101371.16;108313;1285;24380;-75
2024/01/11 08:33:53;;;;;;;;;;;;;;;;;;;;;
2024/01/11 08:37:06;;;;;;;87.00;57.50;;;;;;;-4.84;100.00;101368.52;108343;1283;22753;-75
2024/01/11 08:40:06;;;;;;;94.70;62.70;;;;;;;-4.79;100.00;101358.70;108633;1279;21994;-75
2024/01/11 08:42:55;;;;;;;95.50;64.50;;;;;;;-4.77;100.00;101353.70;108785;1277;23618;-77
2024/01/11 08:45:40;;;;;;;97.20;60.50;;;;;;;-4.78;100.00;101353.32;108941;1276;21989;-77
2024/01/11 08:48:28;;;;;;;95.00;62.10;;;;;;;-4.78;100.00;101358.76;109549;1264;21990;-77
2024/01/11 08:51:14;;;;;;;97.60;59.90;;;;;;;-4.74;100.00;101371.31;110229;1259;22204;-75
2024/01/11 08:53:57;;;;;;;86.60;56.80;;;;;;;-4.74;100.00;101376.27;110627;1259;22913;-77
2024/01/11 08:56:35;;;;;;;85.50;54.80;;;;;;;-4.76;100.00;101388.71;110732;1259;22038;-75
2024/01/11 08:59:24;;;;;;;85.00;55.60;;;;;;;-4.81;100.00;101400.42;110736;1259;185606;-75
2024/01/11 09:02:21;;;;;;;87.50;58.60;;;;;;;-4.81;100.00;101390.39;110694;1259;24384;-76
2024/01/11 09:05:35;;;;;;;102.90;62.60;;;;;;;-4.77;100.00;101382.59;110705;1259;21971;-77
2024/01/11 09:08:35;;;;;;;91.30;58.70;;;;;;;-4.69;100.00;101374.59;110315;1264;21970;-76
2024/01/11 09:11:37;;;;;;;;;;;;;;;;;;;;;
2024/01/11 09:14:56;;;;;;;97.10;63.10;;;;;;;-4.48;100.00;101362.85;109608;1272;22006;-77
2024/01/11 09:17:54;;;;;;;93.40;59.70;;;;;;;-4.46;100.00;101353.09;109062;1275;24444;-75
2024/01/11 09:20:59;;;;;;;;;;;;;;;-4.31;100.00;101350.92;108541;1280;21998;-76
2024/01/11 09:27:15;;;;;;;84.80;57.60;;;;;;;-4.13;100.00;101358.75;108702;1280;22000;-76
2024/01/11 09:30:27;;;;;;;;;;;;;;;;;;;;;
2024/01/11 09:33:37;;;;;;;;;;;;;;;;;;;;;
2024/01/11 09:36:14;;;;;;;91.30;55.90;;;;;;;-3.96;100.00;101351.08;108947;1275;22000;-76
2024/01/11 09:39:15;;;;;;;81.40;55.90;;;;;;;-3.94;100.00;101352.15;108738;1277;21989;-77
2024/01/11 09:43:39;;;;;;;79.10;52.20;;;;;;;-3.96;100.00;101355.48;108864;1277;21991;-77
2024/01/11 09:46:55;;;;;;;92.20;55.10;;;;;;;-3.92;100.00;101357.33;109690;1269;21994;-75
2024/01/11 09:50:49;;;;;;;83.30;54.60;;;;;;;-3.90;100.00;101352.30;109100;1274;22184;-75
2024/01/11 09:53:57;;;;;;;94.50;55.80;;;;;;;-3.83;100.00;101355.98;109150;1274;21999;-77
2024/01/11 09:57:37;;;;;;;92.30;58.50;;;;;;;-3.76;100.00;101354.20;109478;1269;21987;-76
2024/01/11 10:00:34;;;;;;;78.50;52.80;;;;;;;-3.70;100.00;101354.03;109815;1266;22185;-77
2024/01/11 10:03:38;;;;;;;90.50;54.50;;;;;;;-3.68;100.00;101357.54;110182;1266;23626;-77
2024/01/11 10:06:30;;;;;;;80.50;53.00;;;;;;;-3.68;100.00;101360.08;109839;1266;21982;-75
2024/01/11 10:09:22;;;;;;;73.90;47.90;;;;;;;-3.68;100.00;101361.60;110094;1265;22741;-77
2024/01/11 10:12:47;;;;;;;78.20;50.80;;;;;;;-3.66;100.00;101353.52;109922;1266;21989;-76
2024/01/11 10:15:44;;;;;;;83.40;52.60;;;;;;;-3.61;100.00;101351.98;110174;1266;22986;-79
2024/01/11 10:18:23;;;;;;;78.20;51.40;;;;;;;-3.57;100.00;101348.05;109780;1266;21973;-80
2024/01/11 10:20:54;;;;;;;78.50;50.20;;;;;;;-3.52;100.00;101344.98;109691;1265;23014;-78
2024/01/11 10:23:33;;;;;;;80.80;51.80;;;;;;;-3.51;100.00;101345.02;110097;1266;21987;-78
2024/01/11 10:26:02;;;;;;;81.10;53.50;;;;;;;-3.53;100.00;101349.23;110020;1265;22207;-77
2024/01/11 10:28:32;;;;;;;77.50;51.50;;;;;;;-3.51;100.00;101355.91;110011;1265;21953;-79
2024/01/11 10:31:09;;;;;;;75.00;49.60;;;;;;;-3.48;100.00;101350.40;109721;1269;21982;-77
2024/01/11 10:33:38;;;;;;;72.40;50.60;;;;;;;-3.43;100.00;101342.23;109353;1270;23051;-78
2024/01/11 10:36:11;;;;;;;78.40;54.20;;;;;;;-3.44;100.00;101329.13;109396;1269;21980;-78
2024/01/11 10:38:46;;;;;;;79.30;54.50;;;;;;;-3.44;100.00;101319.39;109607;1265;21984;-79
2024/01/11 10:41:20;;;;;;;74.50;48.10;;;;;;;-3.44;100.00;101320.42;110250;1265;22005;-77
2024/01/11 10:43:52;;;;;;;76.00;49.70;;;;;;;-3.43;100.00;101321.50;110348;1265;21980;-79
2024/01/11 10:46:26;;;;;;;77.10;52.00;;;;;;;-3.41;100.00;101310.50;110298;1264;22726;-79
2024/01/11 10:48:59;;;;;;;83.70;53.00;;;;;;;-3.37;100.00;101324.77;110505;1258;21971;-79
2024/01/11 10:51:32;;;;;;;77.80;50.80;;;;;;;-3.30;100.00;101317.16;110760;1260;21970;-79
2024/01/11 10:54:02;;;;;;;77.90;50.90;;;;;;;-3.24;100.00;101313.80;110753;1260;21973;-79
2024/01/11 10:56:33;;;;;;;78.30;50.70;;;;;;;-3.21;100.00;101320.36;110161;1266;22009;-79
2024/01/11 10:59:03;;;;;;;76.40;49.90;;;;;;;-3.20;100.00;101321.76;110175;1265;22022;-80
2024/01/11 11:01:35;;;;;;;77.10;50.20;;;;;;;-3.18;100.00;101323.90;110164;1261;22985;-79
2024/01/11 11:04:20;;;;;;;82.70;57.40;;;;;;;-3.18;100.00;101319.63;109774;1269;23718;-80
2024/01/11 11:06:59;;;;;;;81.40;55.00;;;;;;;-3.14;100.00;101314.81;109688;1269;22429;-80
2024/01/11 11:09:43;;;;;;;78.30;50.40;;;;;;;-3.05;100.00;101314.61;109457;1269;23051;-82
2024/01/11 11:12:27;;;;;;;76.40;50.50;;;;;;;-3.02;100.00;101307.20;109566;1269;22138;-78
2024/01/11 11:15:16;;;;;;;81.20;52.50;;;;;;;-3.05;100.00;101305.90;110028;1270;21995;-81
2024/01/11 11:18:06;;;;;;;75.50;48.80;;;;;;;-3.02;100.00;101309.92;109671;1273;21991;-79
2024/01/11 11:20:59;;;;;;;79.60;52.80;;;;;;;-2.96;100.00;101316.61;109259;1269;22740;-80
2024/01/11 11:24:01;;;;;;;75.30;49.20;;;;;;;-2.92;100.00;101314.19;109512;1269;23119;-79
2024/01/11 11:26:45;;;;;;;70.60;46.10;;;;;;;-2.91;100.00;101305.00;109452;1269;22037;-79
2024/01/11 11:29:50;;;;;;;71.60;47.70;;;;;;;-2.96;100.00;101298.35;110114;1265;23004;-78
2024/01/11 11:32:38;;;;;;;73.10;48.00;;;;;;;-2.96;100.00;101298.38;110423;1265;23717;-79
2024/01/11 11:35:11;;;;;;;74.10;46.10;;;;;;;-2.93;100.00;101295.91;110523;1260;21983;-78
2024/01/11 11:37:43;;;;;;;;;;;;;;;-2.91;100.00;101288.65;110843;1260;21955;-78
2024/01/11 11:40:56;;;;;;;76.90;46.60;;;;;;;-2.97;100.00;101289.81;110616;1260;23583;-77
2024/01/11 11:44:43;;;;;;;70.80;44.10;;;;;;;-3.00;100.00;101280.38;110580;1260;22067;-77
2024/01/11 11:48:54;;;;;;;;;;;;;;;;;;;;;
2024/01/11 11:52:27;;;;;;;72.20;45.20;;;;;;;-2.99;100.00;101268.14;110310;1266;22776;-76
2024/01/11 11:55:40;;;;;;;70.40;42.50;;;;;;;-2.97;100.00;101258.65;109377;1272;22292;-77
2024/01/11 11:58:57;;;;;;;71.20;43.00;;;;;;;-2.96;100.00;101253.59;109310;1272;22867;-76
2024/01/11 12:03:06;;;;;;;62.60;41.80;;;;;;;-2.97;100.00;101251.33;109292;1272;22044;-78
2024/01/11 12:06:04;;;;;;;72.80;44.10;;;;;;;-3.00;100.00;101252.10;109307;1272;22171;-76
2024/01/11 12:09:40;;;;;;;74.70;46.40;;;;;;;-3.01;100.00;101251.90;109402;1272;21992;-76
2024/01/11 12:17:38;;;;;;;68.50;41.80;;;;;;;-2.96;100.00;101246.75;108879;1278;22017;-77
2024/01/11 12:20:57;;;;;;;;;;;;;;;;;;;;;
2024/01/11 12:24:39;;;;;;;69.10;42.30;;;;;;;-2.95;100.00;101232.33;108195;1287;22003;-75
2024/01/11 12:27:16;;;;;;;74.10;46.50;;;;;;;-2.97;100.00;101214.71;107778;1287;23599;-76
2024/01/11 12:30:17;;;;;;;74.20;47.30;;;;;;;-2.89;100.00;101217.86;108116;1287;22030;-76
2024/01/11 12:33:13;;;;;;;81.60;46.40;;;;;;;-2.84;100.00;101217.50;108092;1287;22253;-76
2024/01/11 12:35:53;;;;;;;67.30;43.30;;;;;;;-2.83;100.00;101215.80;108073;1287;23675;-77
2024/01/11 12:38:40;;;;;;;75.70;45.20;;;;;;;-2.84;100.00;101212.55;108178;1283;22866;-78
2024/01/11 12:41:49;;;;;;;71.50;47.30;;;;;;;-2.84;100.00;101207.61;108572;1276;23049;-77
2024/01/11 12:45:35;;;;;;;;;;;;;;;;;;;;;
2024/01/11 12:48:54;;;;;;;73.10;44.90;;;;;;;-2.86;100.00;101215.71;108419;1283;22020;-76
2024/01/11 12:51:42;;;;;;;73.60;46.20;;;;;;;-2.86;100.00;101217.77;108523;1283;23725;-77
2024/01/11 12:54:48;;;;;;;76.80;46.40;;;;;;;-2.85;100.00;101219.01;108477;1281;23007;-78
2024/01/11 12:58:13;;;;;;;;;;;;;;;;;;;;;
2024/01/11 13:01:27;;;;;;;73.20;45.80;;;;;;;-2.80;100.00;101218.80;108601;1281;23796;-77
2024/01/11 13:05:01;;;;;;;82.80;47.10;;;;;;;-2.76;100.00;101216.39;109058;1274;23084;-76
2024/01/11 13:08:09;;;;;;;77.50;43.20;;;;;;;-2.72;100.00;101215.30;109072;1274;24417;-78
2024/01/11 13:11:29;;;;;;;74.30;42.50;;;;;;;-2.71;100.00;101218.75;108705;1274;23732;-77
2024/01/11 13:14:56;;;;;;;69.90;40.90;;;;;;;-2.71;100.00;101217.39;109235;1274;22201;-77
2024/01/11 13:18:06;;;;;;;67.90;41.50;;;;;;;-2.70;100.00;101221.34;109057;1272;22340;-77
2024/01/11 13:22:05;;;;;;;;;;;;;;;;;;;;;
2024/01/11 13:25:22;;;;;;;61.50;38.00;;;;;;;-2.67;100.00;101229.08;108379;1286;22786;-77
2024/01/11 13:28:32;;;;;;;63.90;39.20;;;;;;;-2.66;100.00;101224.34;108428;1286;22760;-77
2024/01/11 13:31:54;;;;;;;65.60;41.70;;;;;;;-2.50;100.00;101221.75;107669;1293;544980;-76
2024/01/11 13:35:11;;;;;;;62.30;40.30;;;;;;;-2.60;100.00;101219.73;109908;1268;22737;-77
2024/01/11 13:39:14;;;;;;;;;;;;;;;;;;;;;
2024/01/11 13:47:52;;;;;;;73.30;43.10;;;;;;;-2.73;100.00;101216.12;107201;1278;21996;-77
2024/01/11 13:52:11;;;;;;;;;;;;;;;;;;;;;
2024/01/11 13:54:52;;;;;;;65.30;41.90;;;;;;;-2.66;100.00;101213.27;108493;1283;23622;-76
2024/01/11 13:58:18;;;;;;;72.90;43.20;;;;;;;-2.61;100.00;101214.43;108943;1276;23004;-77
2024/01/11 14:01:39;;;;;;;69.70;44.10;;;;;;;-2.57;100.00;101212.36;108738;1281;23724;-78
2024/01/11 14:04:34;;;;;;;61.90;41.00;;;;;;;-2.53;100.00;101207.00;108940;1276;21998;-78
2024/01/11 14:07:58;;;;;;;;;;;;;;;;;;;;;
2024/01/11 14:11:22;;;;;;;60.50;40.60;;;;;;;-2.48;100.00;101214.48;108186;1285;22204;-77
2024/01/11 14:14:04;;;;;;;60.90;38.80;;;;;;;-2.44;100.00;101212.90;108200;1287;23728;-78
2024/01/11 14:21:00;;;;;;;57.70;40.30;;;;;;;-2.43;100.00;101215.98;108047;1284;22570;-77
2024/01/11 14:24:18;;;;;;;63.20;41.80;;;;;;;-2.39;100.00;101215.07;108419;1284;22029;-78
2024/01/11 14:27:38;;;;;;;60.20;40.20;;;;;;;-2.37;100.00;101216.52;108330;1284;23057;-75
2024/01/11 14:31:50;;;;;;;63.60;41.80;;;;;;;-2.36;100.00;101219.26;109023;1272;22077;-77
2024/01/11 14:35:28;;;;;;;63.70;39.70;;;;;;;-2.41;100.00;101209.05;109416;1272;22445;-78
2024/01/11 14:39:04;;;;;;;75.50;43.40;;;;;;;-2.25;100.00;101229.80;108843;1279;21994;-77
2024/01/11 14:43:19;;;;;;;75.80;45.40;;;;;;;-2.22;100.00;101227.84;108327;1286;22004;-77
2024/01/11 14:46:36;;;;;;;67.50;43.70;;;;;;;-2.22;100.00;101237.89;107814;1283;23149;-78
2024/01/11 14:50:28;;;;;;;64.70;43.80;;;;;;;-2.20;100.00;101245.29;107753;1291;23088;-77
2024/01/11 15:02:41;;;;;;;;;;;;;;;;;;;;;
2024/01/11 15:05:47;;;;;;;67.40;45.80;;;;;;;-1.95;100.00;101256.73;107776;1291;544697;-80
2024/01/11 15:12:21;;;;;;;55.50;37.90;;;;;;;-1.93;100.00;101258.31;110486;1264;21974;-76
2024/01/11 15:15:12;;;;;;;61.20;41.30;;;;;;;-1.92;100.00;101259.72;110025;1267;21977;-77
2024/01/11 15:18:48;;;;;;;58.00;38.40;;;;;;;-1.94;100.00;101262.75;104407;1265;7519057;-77
2024/01/11 15:22:29;;;;;;;62.10;39.10;;;;;;;-1.97;100.00;101263.52;110432;1265;22032;-77
2024/01/11 15:30:06;;;;;;;55.20;38.00;;;;;;;-1.98;100.00;101256.33;108748;1281;23048;-76
2024/01/11 15:33:32;;;;;;;57.80;37.80;;;;;;;-1.92;100.00;101254.42;107977;1291;23788;-76
2024/01/11 15:36:14;;;;;;;54.80;37.00;;;;;;;-1.84;100.00;101260.80;107894;1291;22003;-78
2024/01/11 15:40:03;;;;;;;51.90;35.50;;;;;;;-1.81;100.00;101261.91;108082;1287;23748;-77
2024/01/11 15:43:14;;;;;;;48.40;33.30;;;;;;;-1.82;100.00;101258.27;108037;1284;22462;-78
2024/01/11 15:46:10;;;;;;;54.80;37.40;;;;;;;-1.82;100.00;101262.73;108163;1288;22021;-79
2024/01/11 15:49:01;;;;;;;50.30;36.30;;;;;;;-1.79;100.00;101262.30;108201;1288;23065;-76
2024/01/11 15:52:07;;;;;;;60.60;40.70;;;;;;;-1.76;100.00;101258.11;108113;1290;22015;-79
2024/01/11 15:55:11;;;;;;;;;;;;;;;;;;;;;
2024/01/11 15:58:39;;;;;;;53.90;37.80;;;;;;;-1.72;100.00;101257.88;108070;1290;22034;-77
2024/01/11 16:01:42;;;;;;;53.30;39.80;;;;;;;-1.72;100.00;101263.86;108147;1290;22013;-78
2024/01/11 16:05:04;;;;;;;55.70;40.40;;;;;;;-1.70;100.00;101263.55;108886;1273;22334;-78
2024/01/11 16:13:14;;;;;;;64.80;44.70;;;;;;;-1.70;100.00;101256.73;108585;1284;22001;-77
2024/01/11 16:16:31;;;;;;;62.20;42.90;;;;;;;-1.68;100.00;101251.14;108633;1284;24644;-77
2024/01/11 16:20:17;;;;;;;55.50;42.70;;;;;;;-1.64;100.00;101252.10;108643;1280;22198;-81